createdAt,value
2022-11-28T00:00:53.447Z,13.35
2022-11-28T00:02:57.520Z,13.70
2022-11-28T00:05:00.263Z,13.23
2022-11-28T00:07:03.311Z,14.77
2022-11-28T00:09:06.200Z,13.27
2022-11-28T00:11:10.633Z,14.20
2022-11-28T00:13:13.362Z,13.35
2022-11-28T00:15:16.025Z,12.77
2022-11-28T00:17:18.628Z,13.82
2022-11-28T00:19:22.617Z,13.70
2022-11-28T00:21:25.249Z,14.02
2022-11-28T00:23:28.182Z,13.50
2022-11-28T00:25:30.781Z,13.80
2022-11-28T00:27:35.273Z,13.38
2022-11-28T00:29:39.352Z,13.98
2022-11-28T00:31:43.757Z,13.25
2022-11-28T00:33:47.098Z,13.02
2022-11-28T00:35:51.125Z,14.40
2022-11-28T00:37:53.701Z,13.15
2022-11-28T00:39:56.324Z,13.35
2022-11-28T00:41:58.893Z,14.02
2022-11-28T00:44:01.760Z,13.30
2022-11-28T00:46:05.391Z,14.20
2022-11-28T00:48:08.622Z,13.30
2022-11-28T00:50:11.604Z,14.30
2022-11-28T00:52:15.535Z,13.25
2022-11-28T00:54:18.137Z,12.55
2022-11-28T00:56:22.938Z,12.73
2022-11-28T00:58:25.562Z,13.48
2022-11-28T01:00:28.197Z,12.38
2022-11-28T01:02:30.797Z,13.00
2022-11-28T01:04:33.442Z,12.40
2022-11-28T01:06:38.473Z,11.93
2022-11-28T01:08:42.411Z,12.40
2022-11-28T01:10:46.529Z,13.32
2022-11-28T01:12:49.224Z,13.50
2022-11-28T01:14:51.802Z,14.13
2022-11-28T01:16:54.844Z,12.95
2022-11-28T01:18:57.722Z,12.65
2022-11-28T01:21:00.419Z,12.70
2022-11-28T01:23:03.068Z,12.25
2022-11-28T01:25:07.898Z,12.73
2022-11-28T01:27:10.479Z,11.93
2022-11-28T01:29:13.631Z,13.52
2022-11-28T01:31:18.246Z,13.40
2022-11-28T01:33:20.885Z,12.80
2022-11-28T01:35:23.488Z,13.07
2022-11-28T01:37:26.177Z,12.55
2022-11-28T01:39:28.876Z,12.95
2022-11-28T01:41:32.854Z,12.85
2022-11-28T01:43:36.246Z,11.70
2022-11-28T01:45:41.562Z,12.73
2022-11-28T01:47:45.389Z,12.60
2022-11-28T01:49:50.186Z,12.38
2022-11-28T01:51:57.100Z,11.98
2022-11-28T01:54:00.788Z,12.07
2022-11-28T01:56:08.225Z,11.98
2022-11-28T01:58:13.631Z,12.60
2022-11-28T02:00:19.374Z,11.90
2022-11-28T02:02:28.087Z,11.98
2022-11-28T02:04:33.994Z,11.27
2022-11-28T02:06:37.338Z,11.23
2022-11-28T02:08:40.129Z,11.60
2022-11-28T02:10:58.524Z,11.55
2022-11-28T02:13:19.972Z,11.13
2022-11-28T02:15:34.834Z,11.43
2022-11-28T02:17:50.621Z,11.48
2022-11-28T02:20:21.303Z,11.27
2022-11-28T02:22:27.779Z,11.23
2022-11-28T02:24:50.690Z,11.75
2022-11-28T02:27:24.049Z,11.88
2022-11-28T02:30:04.696Z,11.15
2022-11-28T02:32:30.994Z,10.85
2022-11-28T02:34:45.659Z,10.95
2022-11-28T02:36:53.611Z,11.10
2022-11-28T02:39:03.815Z,10.80
2022-11-28T02:41:14.157Z,10.52
2022-11-28T02:43:24.687Z,11.52
2022-11-28T02:45:33.031Z,10.90
2022-11-28T02:47:39.380Z,10.68
2022-11-28T02:49:48.297Z,11.10
2022-11-28T02:51:56.437Z,12.05
2022-11-28T02:54:00.877Z,11.23
2022-11-28T02:56:03.759Z,11.73
2022-11-28T02:58:06.357Z,11.30
2022-11-28T03:00:26.715Z,11.35
2022-11-28T03:02:32.479Z,12.73
2022-11-28T03:04:45.773Z,11.95
2022-11-28T03:06:59.404Z,11.98
2022-11-28T03:09:26.036Z,12.43
2022-11-28T03:11:42.557Z,13.10
2022-11-28T03:13:55.177Z,11.63
2022-11-28T03:16:07.242Z,12.88
2022-11-28T03:18:14.945Z,12.38
2022-11-28T03:20:24.000Z,12.07
2022-11-28T03:22:31.544Z,11.35
2022-11-28T03:24:38.688Z,10.75
2022-11-28T03:26:49.096Z,11.38
2022-11-28T03:28:56.704Z,12.38
2022-11-28T03:31:05.839Z,12.35
2022-11-28T03:33:09.629Z,12.35
2022-11-28T03:35:16.073Z,10.93
2022-11-28T03:37:24.537Z,11.35
2022-11-28T03:39:32.830Z,12.07
2022-11-28T03:41:39.798Z,12.13
2022-11-28T03:43:46.172Z,11.98
2022-11-28T03:45:52.988Z,11.63
2022-11-28T03:48:01.644Z,12.43
2022-11-28T03:50:09.264Z,12.20
2022-11-28T03:52:17.145Z,12.70
2022-11-28T03:54:29.142Z,11.52
2022-11-28T03:56:40.982Z,11.82
2022-11-28T04:01:04.180Z,11.32
2022-11-28T04:03:15.585Z,12.43
2022-11-28T04:05:23.831Z,12.27
2022-11-28T04:07:34.627Z,12.93
2022-11-28T04:09:46.243Z,11.30
2022-11-28T04:11:53.104Z,11.75
2022-11-28T04:13:59.177Z,11.98
2022-11-28T04:16:06.204Z,12.57
2022-11-28T04:18:21.979Z,11.57
2022-11-28T04:20:31.010Z,12.05
2022-11-28T04:22:39.085Z,11.68
2022-11-28T04:24:48.313Z,12.52
2022-11-28T04:26:56.967Z,12.35
2022-11-28T04:29:01.757Z,11.80
2022-11-28T04:31:06.864Z,12.23
2022-11-28T04:33:12.770Z,11.80
2022-11-28T04:35:23.403Z,12.10
2022-11-28T04:37:28.486Z,11.88
2022-11-28T04:39:33.130Z,12.50
2022-11-28T04:41:41.513Z,11.13
2022-11-28T04:43:48.580Z,12.15
2022-11-28T04:45:55.040Z,11.35
2022-11-28T04:47:58.527Z,11.68
2022-11-28T04:50:01.502Z,11.60
2022-11-28T04:52:10.150Z,12.60
2022-11-28T04:54:18.818Z,12.32
2022-11-28T04:56:26.660Z,11.68
2022-11-28T04:58:36.941Z,11.80
2022-11-28T05:00:40.779Z,11.63
2022-11-28T05:02:45.490Z,11.52
2022-11-28T05:04:50.914Z,11.32
2022-11-28T05:07:02.366Z,11.35
2022-11-28T05:09:05.560Z,11.77
2022-11-28T05:11:08.133Z,11.38
2022-11-28T05:13:11.147Z,11.85
2022-11-28T05:15:18.994Z,11.85
2022-11-28T05:17:21.683Z,11.32
2022-11-28T05:19:24.267Z,12.10
2022-11-28T05:21:26.904Z,13.80
2022-11-28T05:23:29.651Z,14.68
2022-11-28T05:25:32.299Z,12.18
2022-11-28T05:27:34.931Z,12.95
2022-11-28T05:29:37.517Z,15.40
2022-11-28T05:31:41.588Z,16.30
2022-11-28T05:33:44.206Z,15.90
2022-11-28T05:35:46.779Z,16.90
2022-11-28T05:37:49.398Z,15.75
2022-11-28T05:39:52.102Z,18.05
2022-11-28T05:41:55.818Z,17.85
2022-11-28T05:43:59.570Z,15.43
2022-11-28T05:46:02.304Z,16.17
2022-11-28T05:48:07.006Z,17.02
2022-11-28T05:50:10.225Z,15.20
2022-11-28T05:52:12.843Z,13.63
2022-11-28T05:54:15.941Z,11.73
2022-11-28T05:56:20.601Z,12.07
2022-11-28T05:58:23.493Z,12.95
2022-11-28T06:00:26.194Z,12.18
2022-11-28T06:02:28.846Z,12.15
2022-11-28T06:04:32.846Z,12.18
2022-11-28T06:06:38.619Z,11.50
2022-11-28T06:08:41.272Z,11.15
2022-11-28T06:10:43.918Z,11.07
2022-11-28T06:12:46.488Z,11.27
2022-11-28T06:14:49.071Z,11.48
2022-11-28T06:16:51.712Z,12.68
2022-11-28T06:18:55.226Z,10.85
2022-11-28T06:21:02.661Z,10.88
2022-11-28T06:23:05.281Z,11.35
2022-11-28T06:25:08.320Z,11.70
2022-11-28T06:27:11.009Z,10.68
2022-11-28T06:29:13.572Z,11.43
2022-11-28T06:31:17.976Z,11.40
2022-11-28T06:33:20.667Z,11.48
2022-11-28T06:35:23.274Z,11.15
2022-11-28T06:37:27.243Z,11.70
2022-11-28T06:39:29.847Z,12.55
2022-11-28T06:41:32.587Z,12.77
2022-11-28T06:43:35.489Z,11.80
2022-11-28T06:45:38.131Z,11.38
2022-11-28T06:47:40.797Z,10.82
2022-11-28T06:49:43.479Z,12.55
2022-11-28T06:51:46.277Z,12.00
2022-11-28T06:53:50.811Z,12.48
2022-11-28T06:55:53.539Z,12.05
2022-11-28T06:57:56.162Z,12.27
2022-11-28T06:59:58.728Z,11.45
2022-11-28T07:02:07.503Z,12.13
2022-11-28T07:04:10.784Z,11.82
2022-11-28T07:06:14.170Z,11.98
2022-11-28T07:08:17.290Z,11.70
2022-11-28T07:10:21.450Z,12.52
2022-11-28T07:12:24.541Z,12.10
2022-11-28T07:14:27.532Z,13.27
2022-11-28T07:16:33.267Z,12.95
2022-11-28T07:18:36.032Z,12.00
2022-11-28T07:20:38.621Z,12.55
2022-11-28T07:22:41.379Z,11.65
2022-11-28T07:24:43.950Z,11.25
2022-11-28T07:26:47.985Z,11.27
2022-11-28T07:28:51.743Z,10.95
2022-11-28T07:31:00.886Z,10.98
2022-11-28T07:33:03.489Z,11.10
2022-11-28T07:35:08.295Z,11.10
2022-11-28T07:37:10.886Z,10.30
2022-11-28T07:39:18.527Z,11.73
2022-11-28T07:41:26.298Z,12.15
2022-11-28T07:43:30.862Z,12.20
2022-11-28T07:45:58.933Z,15.15
2022-11-28T07:47:56.102Z,13.07
2022-11-28T07:49:58.694Z,12.82
2022-11-28T07:52:01.382Z,13.20
2022-11-28T07:54:04.883Z,14.10
2022-11-28T07:56:09.864Z,12.18
2022-11-28T07:58:12.521Z,13.50
2022-11-28T08:00:18.250Z,13.93
2022-11-28T08:02:20.861Z,14.20
2022-11-28T08:04:23.904Z,14.18
2022-11-28T08:06:28.644Z,12.77
2022-11-28T08:08:31.821Z,13.60
2022-11-28T08:10:34.544Z,13.05
2022-11-28T08:12:37.166Z,12.40
2022-11-28T08:14:40.154Z,12.50
2022-11-28T08:16:45.244Z,12.60
2022-11-28T08:18:48.842Z,11.55
2022-11-28T08:20:51.553Z,9.15
2022-11-28T08:22:54.131Z,10.80
2022-11-28T08:24:56.698Z,10.32
2022-11-28T08:26:59.262Z,8.73
2022-11-28T08:29:03.042Z,9.07
2022-11-28T08:31:10.194Z,9.57
2022-11-28T08:33:14.206Z,9.90
2022-11-28T08:35:16.904Z,9.93
2022-11-28T08:37:19.589Z,10.27
2022-11-28T08:39:24.934Z,8.48
2022-11-28T08:41:28.083Z,8.63
2022-11-28T08:43:30.718Z,8.80
2022-11-28T08:45:33.367Z,7.30
2022-11-28T08:47:36.123Z,7.75
2022-11-28T08:49:40.096Z,8.43
2022-11-28T08:51:42.749Z,8.32
2022-11-28T08:53:48.737Z,7.75
2022-11-28T08:55:52.770Z,7.78
2022-11-28T08:57:55.381Z,8.52
2022-11-28T08:59:58.049Z,8.65
2022-11-28T09:02:00.631Z,8.35
2022-11-28T09:04:03.328Z,8.32
2022-11-28T09:06:07.517Z,8.10
2022-11-28T09:08:12.040Z,8.82
2022-11-28T09:10:15.050Z,9.73
2022-11-28T09:12:17.781Z,7.97
2022-11-28T09:14:20.379Z,9.02
2022-11-28T09:16:23.069Z,9.32
2022-11-28T09:18:27.038Z,10.25
2022-11-28T09:20:29.694Z,8.85
2022-11-28T09:22:33.633Z,8.60
2022-11-28T09:24:36.246Z,8.70
2022-11-28T09:26:38.921Z,7.78
2022-11-28T09:28:41.887Z,8.70
2022-11-28T09:30:44.539Z,8.98
2022-11-28T09:32:49.558Z,8.75
2022-11-28T09:34:52.197Z,9.52
2022-11-28T09:36:54.874Z,9.63
2022-11-28T09:39:00.553Z,9.68
2022-11-28T09:41:04.381Z,9.23
2022-11-28T09:43:13.046Z,9.10
2022-11-28T09:45:18.882Z,9.90
2022-11-28T09:47:26.429Z,9.40
2022-11-28T09:49:41.149Z,9.05
2022-11-28T09:51:50.888Z,9.90
2022-11-28T09:54:03.929Z,11.00
2022-11-28T09:56:12.407Z,10.48
2022-11-28T09:58:18.373Z,10.55
2022-11-28T10:00:22.839Z,10.93
2022-11-28T10:02:34.680Z,10.32
2022-11-28T10:06:56.543Z,10.68
2022-11-28T10:09:19.074Z,10.65
2022-11-28T10:11:36.439Z,10.73
2022-11-28T10:14:07.648Z,10.50
2022-11-28T10:16:17.421Z,10.57
2022-11-28T10:18:31.661Z,11.13
2022-11-28T10:20:39.215Z,11.02
2022-11-28T10:22:45.463Z,11.95
2022-11-28T10:24:53.278Z,11.15
2022-11-28T10:27:02.636Z,10.70
2022-11-28T10:29:16.912Z,11.27
2022-11-28T10:31:26.580Z,11.52
2022-11-28T10:33:32.783Z,10.93
2022-11-28T10:35:44.047Z,11.45
2022-11-28T10:37:46.878Z,11.98
2022-11-28T10:39:51.662Z,11.70
2022-11-28T10:42:19.827Z,12.02
2022-11-28T10:44:32.290Z,10.63
2022-11-28T10:46:51.274Z,11.27
2022-11-28T10:49:00.520Z,11.98
2022-11-28T10:51:13.765Z,10.82
2022-11-28T10:53:31.515Z,11.40
2022-11-28T10:55:45.747Z,11.48
2022-11-28T10:57:59.137Z,11.50
2022-11-28T11:00:06.562Z,11.95
2022-11-28T11:02:22.662Z,11.70
2022-11-28T11:04:28.120Z,10.82
2022-11-28T11:06:41.387Z,10.48
2022-11-28T11:08:50.826Z,10.77
2022-11-28T11:11:06.572Z,10.18
2022-11-28T11:13:19.236Z,11.02
2022-11-28T11:15:25.437Z,9.50
2022-11-28T11:17:36.181Z,10.77
2022-11-28T11:19:41.214Z,10.70
2022-11-28T11:21:59.816Z,9.85
2022-11-28T11:24:13.556Z,10.75
2022-11-28T11:26:26.021Z,10.52
2022-11-28T11:28:43.591Z,10.85
2022-11-28T11:30:47.375Z,10.75
2022-11-28T11:32:51.782Z,10.82
2022-11-28T11:34:57.112Z,10.85
2022-11-28T11:37:20.781Z,10.30
2022-11-28T11:39:25.524Z,10.30
2022-11-28T11:41:32.003Z,11.57
2022-11-28T11:43:36.534Z,10.80
2022-11-28T11:45:39.486Z,10.15
2022-11-28T11:47:44.169Z,10.98
2022-11-28T11:49:49.279Z,10.93
2022-11-28T11:51:57.336Z,10.65
2022-11-28T11:54:04.276Z,10.57
2022-11-28T11:56:07.473Z,11.63
2022-11-28T11:58:15.457Z,11.45
2022-11-28T12:00:22.355Z,10.80
2022-11-28T12:02:32.310Z,11.68
2022-11-28T12:04:51.228Z,10.82
2022-11-28T12:06:59.613Z,12.18
2022-11-28T12:09:12.650Z,11.52
2022-11-28T12:11:20.003Z,11.63
2022-11-28T12:13:26.832Z,11.60
2022-11-28T12:15:44.065Z,11.40
2022-11-28T12:17:59.348Z,11.88
2022-11-28T12:20:23.586Z,11.27
2022-11-28T12:22:35.896Z,10.63
2022-11-28T12:24:47.275Z,11.38
2022-11-28T12:27:07.489Z,11.55
2022-11-28T12:29:26.337Z,12.23
2022-11-28T12:31:42.794Z,14.55
2022-11-28T12:33:55.826Z,14.23
2022-11-28T12:36:10.226Z,15.77
2022-11-28T12:38:31.275Z,16.20
2022-11-28T12:40:39.235Z,15.77
2022-11-28T12:42:58.402Z,15.90
2022-11-28T12:45:24.009Z,15.40
2022-11-28T12:47:38.610Z,16.52
2022-11-28T12:49:52.229Z,15.63
2022-11-28T12:52:07.620Z,14.63
2022-11-28T12:54:35.519Z,13.75
2022-11-28T12:56:49.502Z,12.55
2022-11-28T12:58:59.564Z,14.00
2022-11-28T13:01:24.941Z,12.82
2022-11-28T13:03:42.167Z,12.77
2022-11-28T13:05:54.747Z,11.82
2022-11-28T13:08:12.936Z,11.68
2022-11-28T13:10:25.738Z,11.82
2022-11-28T13:12:41.032Z,11.82
2022-11-28T13:14:52.379Z,12.55
2022-11-28T13:17:00.371Z,13.80
2022-11-28T13:19:09.355Z,12.63
2022-11-28T13:21:23.656Z,12.60
2022-11-28T13:23:30.231Z,14.20
2022-11-28T13:25:41.285Z,13.65
2022-11-28T13:27:51.258Z,14.05
2022-11-28T13:30:06.524Z,13.65
2022-11-28T13:32:17.697Z,13.93
2022-11-28T13:34:22.017Z,13.43
2022-11-28T13:39:12.559Z,13.85
2022-11-28T13:42:00.852Z,13.43
2022-11-28T13:43:59.293Z,13.25
2022-11-28T13:46:02.362Z,16.05
2022-11-28T13:51:06.601Z,18.52
2022-11-28T13:53:26.135Z,19.63
2022-11-28T13:55:40.781Z,17.75
2022-11-28T13:57:43.451Z,17.52
2022-11-28T13:59:50.960Z,17.38
2022-11-28T14:01:58.765Z,17.67
2022-11-28T14:04:09.055Z,17.05
2022-11-28T14:06:16.591Z,17.27
2022-11-28T14:08:30.238Z,16.95
2022-11-28T14:10:48.456Z,16.98
2022-11-28T14:13:06.432Z,17.25
2022-11-28T14:15:24.240Z,16.48
2022-11-28T14:17:39.027Z,16.52
2022-11-28T14:19:55.394Z,14.68
2022-11-28T14:22:10.445Z,13.93
2022-11-28T14:24:21.148Z,15.20
2022-11-28T14:26:28.393Z,14.93
2022-11-28T14:28:36.722Z,14.77
2022-11-28T14:30:42.376Z,14.77
2022-11-28T14:32:45.623Z,14.60
2022-11-28T14:34:49.644Z,15.05
2022-11-28T14:37:30.839Z,14.05
2022-11-28T14:39:35.646Z,14.48
2022-11-28T14:42:17.820Z,14.23
2022-11-28T14:44:48.077Z,14.60
2022-11-28T14:47:06.864Z,13.30
2022-11-28T14:49:22.953Z,13.98
2022-11-28T14:52:15.929Z,12.77
2022-11-28T14:54:23.872Z,14.20
2022-11-28T14:56:29.389Z,14.02
2022-11-28T14:58:32.049Z,13.85
2022-11-28T15:00:47.390Z,14.45
2022-11-28T15:03:05.681Z,14.07
2022-11-28T15:05:21.815Z,14.07
2022-11-28T15:07:35.713Z,13.35
2022-11-28T15:09:45.377Z,13.05
2022-11-28T15:12:04.055Z,14.40
2022-11-28T15:14:11.183Z,14.93
2022-11-28T15:16:16.290Z,14.48
2022-11-28T15:18:20.333Z,14.75
2022-11-28T15:20:28.998Z,15.23
2022-11-28T15:22:33.488Z,14.40
2022-11-28T15:24:37.586Z,15.05
2022-11-28T15:26:40.252Z,14.77
2022-11-28T15:28:44.286Z,16.27
2022-11-28T15:30:48.476Z,15.68
2022-11-28T15:32:51.534Z,16.45
2022-11-28T15:34:59.487Z,16.33
2022-11-28T15:37:04.413Z,16.20
2022-11-28T15:39:25.680Z,17.05
2022-11-28T15:41:29.015Z,16.55
2022-11-28T15:43:32.437Z,16.13
2022-11-28T15:45:36.966Z,15.50
2022-11-28T15:47:41.224Z,16.05
2022-11-28T15:49:44.124Z,15.65
2022-11-28T15:51:53.875Z,16.25
2022-11-28T15:53:56.697Z,15.63
2022-11-28T15:56:09.710Z,15.35
2022-11-28T15:58:19.027Z,15.60
2022-11-28T16:00:21.992Z,15.82
2022-11-28T16:02:30.978Z,15.98
2022-11-28T16:04:33.616Z,15.15
2022-11-28T16:06:39.441Z,15.20
2022-11-28T16:08:49.226Z,15.52
2022-11-28T16:10:51.981Z,14.90
2022-11-28T16:13:01.994Z,14.82
2022-11-28T16:15:05.919Z,14.80
2022-11-28T16:17:15.807Z,14.88
2022-11-28T16:19:25.047Z,14.40
2022-11-28T16:21:30.624Z,15.10
2022-11-28T16:23:36.015Z,15.48
2022-11-28T16:25:38.868Z,14.65
2022-11-28T16:27:44.375Z,14.48
2022-11-28T16:29:47.951Z,16.50
2022-11-28T16:31:51.139Z,15.02
2022-11-28T16:33:53.731Z,16.48
2022-11-28T16:36:10.299Z,15.85
2022-11-28T16:38:17.379Z,15.60
2022-11-28T16:40:22.808Z,16.35
2022-11-28T16:42:25.530Z,15.85
2022-11-28T16:44:28.176Z,16.23
2022-11-28T16:46:35.243Z,16.60
2022-11-28T16:48:39.425Z,15.85
2022-11-28T16:51:12.629Z,15.32
2022-11-28T16:53:43.742Z,15.50
2022-11-28T16:55:46.410Z,16.90
2022-11-28T16:57:54.533Z,18.30
2022-11-28T16:59:57.733Z,18.63
2022-11-28T17:02:00.413Z,18.85
2022-11-28T17:04:04.245Z,15.90
2022-11-28T17:06:07.245Z,17.30
2022-11-28T17:08:09.802Z,16.77
2022-11-28T17:10:15.081Z,17.20
2022-11-28T17:12:24.673Z,17.00
2022-11-28T17:14:27.295Z,17.23
2022-11-28T17:16:30.146Z,16.90
2022-11-28T17:18:32.749Z,15.73
2022-11-28T17:20:35.991Z,15.80
2022-11-28T17:22:41.536Z,15.32
2022-11-28T17:24:44.378Z,15.57
2022-11-28T17:26:48.862Z,15.52
2022-11-28T17:28:51.501Z,15.70
2022-11-28T17:30:55.104Z,16.25
2022-11-28T17:32:59.992Z,14.88
2022-11-28T17:35:04.031Z,15.75
2022-11-28T17:37:06.744Z,15.10
2022-11-28T17:39:09.366Z,16.30
2022-11-28T17:41:14.284Z,15.63
2022-11-28T17:43:19.554Z,16.08
2022-11-28T17:45:23.305Z,15.55
2022-11-28T17:47:25.904Z,15.50
2022-11-28T17:49:28.826Z,15.45
2022-11-28T17:51:31.382Z,16.40
2022-11-28T17:53:33.979Z,15.73
2022-11-28T17:55:36.605Z,16.20
2022-11-28T17:57:39.382Z,16.67
2022-11-28T17:59:43.585Z,15.43
2022-11-28T18:01:46.938Z,16.35
2022-11-28T18:03:49.543Z,17.65
2022-11-28T18:05:52.215Z,15.13
2022-11-28T18:07:54.889Z,17.27
2022-11-28T18:09:57.508Z,18.58
2022-11-28T18:12:01.082Z,16.50
2022-11-28T18:14:03.787Z,16.60
2022-11-28T18:16:08.833Z,16.23
2022-11-28T18:18:11.747Z,15.85
2022-11-28T18:20:14.451Z,16.02
2022-11-28T18:22:17.071Z,16.15
2022-11-28T18:24:19.728Z,16.05
2022-11-28T18:26:24.663Z,17.08
2022-11-28T18:28:27.304Z,17.30
2022-11-28T18:30:29.919Z,18.33
2022-11-28T18:32:34.622Z,20.60
2022-11-28T18:34:37.202Z,23.05
2022-11-28T18:36:41.100Z,22.38
2022-11-28T18:38:45.083Z,20.85
2022-11-28T18:40:47.667Z,18.85
2022-11-28T18:42:52.882Z,20.15
2022-11-28T18:44:55.596Z,20.42
2022-11-28T18:46:58.242Z,20.67
2022-11-28T18:49:03.173Z,19.08
2022-11-28T18:51:11.611Z,21.42
2022-11-28T18:53:14.219Z,20.90
2022-11-28T18:55:17.311Z,21.45
2022-11-28T18:57:19.960Z,19.23
2022-11-28T18:59:22.641Z,18.88
2022-11-28T19:01:28.544Z,17.88
2022-11-28T19:03:31.290Z,16.90
2022-11-28T19:05:39.208Z,19.65
2022-11-28T19:07:42.230Z,19.42
2022-11-28T19:09:46.163Z,20.13
2022-11-28T19:11:51.934Z,19.90
2022-11-28T19:13:54.529Z,20.35
2022-11-28T19:15:57.219Z,19.23
2022-11-28T19:17:59.804Z,20.23
2022-11-28T19:20:02.445Z,19.88
2022-11-28T19:22:06.489Z,19.30
2022-11-28T19:24:10.467Z,19.50
2022-11-28T19:26:14.779Z,20.38
2022-11-28T19:28:17.403Z,22.48
2022-11-28T19:30:20.232Z,18.77
2022-11-28T19:32:22.845Z,22.10
2022-11-28T19:34:25.837Z,23.80
2022-11-28T19:36:29.590Z,22.65
2022-11-28T19:38:34.236Z,21.33
2022-11-28T19:40:36.839Z,23.83
2022-11-28T19:42:39.442Z,25.83
2022-11-28T19:44:42.081Z,26.25
2022-11-28T19:46:45.628Z,21.70
2022-11-28T19:48:51.132Z,18.80
2022-11-28T19:50:54.506Z,19.73
2022-11-28T19:52:57.179Z,20.85
2022-11-28T19:55:01.201Z,22.80
2022-11-28T19:57:03.826Z,20.33
2022-11-28T19:59:06.427Z,21.88
2022-11-28T20:01:11.355Z,26.02
2022-11-28T20:03:14.998Z,24.67
2022-11-28T20:05:17.818Z,23.67
2022-11-28T20:07:20.680Z,26.27
2022-11-28T20:09:23.451Z,26.48
2022-11-28T20:11:29.744Z,27.55
2022-11-28T20:13:33.719Z,27.55
2022-11-28T20:15:36.873Z,27.17
2022-11-28T20:17:39.616Z,25.17
2022-11-28T20:19:42.635Z,24.70
2022-11-28T20:21:46.033Z,25.45
2022-11-28T20:23:50.562Z,25.10
2022-11-28T20:25:53.564Z,24.13
2022-11-28T20:27:57.499Z,23.00
2022-11-28T20:30:00.998Z,24.30
2022-11-28T20:32:03.628Z,23.52
2022-11-28T20:34:07.127Z,24.90
2022-11-28T20:36:12.083Z,24.67
2022-11-28T20:38:14.671Z,24.85
2022-11-28T20:40:17.332Z,23.98
2022-11-28T20:42:20.062Z,23.45
2022-11-28T20:44:24.084Z,23.52
2022-11-28T20:46:30.261Z,22.35
2022-11-28T20:48:33.134Z,23.58
2022-11-28T20:50:35.827Z,23.27
2022-11-28T20:52:38.446Z,23.00
2022-11-28T20:54:41.256Z,23.10
2022-11-28T20:57:19.882Z,23.65
2022-11-28T20:59:08.533Z,23.70
2022-11-28T21:01:15.920Z,22.08
2022-11-28T21:03:18.523Z,21.23
2022-11-28T21:05:21.145Z,20.88
2022-11-28T21:07:25.281Z,22.48
2022-11-28T21:09:27.961Z,21.95
2022-11-28T21:11:55.613Z,22.35
2022-11-28T21:13:55.094Z,21.02
2022-11-28T21:15:59.188Z,20.80
2022-11-28T21:18:03.810Z,19.13
2022-11-28T21:20:08.382Z,19.35
2022-11-28T21:22:10.994Z,20.27
2022-11-28T21:24:15.084Z,18.13
2022-11-28T21:26:19.087Z,19.20
2022-11-28T21:28:21.733Z,20.45
2022-11-28T21:30:24.384Z,21.13
2022-11-28T21:32:26.982Z,21.65
2022-11-28T21:34:30.888Z,24.50
2022-11-28T21:36:33.689Z,23.35
2022-11-28T21:38:36.548Z,23.15
2022-11-28T21:40:39.176Z,21.70
2022-11-28T21:42:41.847Z,22.05
2022-11-28T21:44:44.463Z,20.60
2022-11-28T21:46:47.126Z,18.15
2022-11-28T21:48:49.764Z,18.77
2022-11-28T21:50:53.720Z,18.85
2022-11-28T21:52:56.288Z,17.98
2022-11-28T21:54:58.871Z,19.25
2022-11-28T21:57:01.499Z,18.83
2022-11-28T21:59:04.353Z,19.30
2022-11-28T22:01:09.230Z,18.38
2022-11-28T22:03:14.318Z,17.90
2022-11-28T22:05:17.373Z,16.33
2022-11-28T22:07:21.394Z,17.55
2022-11-28T22:09:24.011Z,17.75
2022-11-28T22:11:26.681Z,16.77
2022-11-28T22:13:29.563Z,16.55
2022-11-28T22:15:32.163Z,18.17
2022-11-28T22:17:34.819Z,18.30
2022-11-28T22:19:37.460Z,16.83
2022-11-28T22:21:56.588Z,18.23
2022-11-28T22:24:00.788Z,15.60
2022-11-28T22:26:03.945Z,16.15
2022-11-28T22:28:06.574Z,15.93
2022-11-28T22:30:10.353Z,15.68
2022-11-28T22:32:13.192Z,15.88
2022-11-28T22:34:16.085Z,15.32
2022-11-28T22:36:20.934Z,17.33
2022-11-28T22:38:23.541Z,14.18
2022-11-28T22:40:27.533Z,15.82
2022-11-28T22:42:30.168Z,16.17
2022-11-28T22:44:32.903Z,15.48
2022-11-28T22:46:35.552Z,15.48
2022-11-28T22:48:39.482Z,16.73
2022-11-28T22:50:42.129Z,16.23
2022-11-28T22:52:45.190Z,15.45
2022-11-28T22:54:49.927Z,15.25
2022-11-28T22:56:55.170Z,16.15
2022-11-28T22:58:57.787Z,15.27
2022-11-28T23:01:00.382Z,14.95
2022-11-28T23:03:03.204Z,15.73
2022-11-28T23:05:06.435Z,14.90
2022-11-28T23:07:09.143Z,16.08
2022-11-28T23:09:14.496Z,17.08
2022-11-28T23:11:19.678Z,16.20
2022-11-28T23:13:24.079Z,16.23
2022-11-28T23:15:26.675Z,15.38
2022-11-28T23:17:29.302Z,15.00
2022-11-28T23:19:32.088Z,16.25
2022-11-28T23:21:36.701Z,15.75
2022-11-28T23:23:40.342Z,15.05
2022-11-28T23:25:42.956Z,15.55
2022-11-28T23:27:45.605Z,15.95
2022-11-28T23:29:52.415Z,14.80
2022-11-28T23:31:55.146Z,15.95
2022-11-28T23:33:58.852Z,15.85
2022-11-28T23:36:01.634Z,15.05
2022-11-28T23:38:04.233Z,15.40
2022-11-28T23:40:08.201Z,15.77
2022-11-28T23:42:10.823Z,14.88
2022-11-28T23:44:14.667Z,14.65
2022-11-28T23:46:19.734Z,14.85
2022-11-28T23:48:22.331Z,14.43
2022-11-28T23:50:25.486Z,14.23
2022-11-28T23:52:28.100Z,14.43
2022-11-28T23:54:30.676Z,13.00
2022-11-28T23:56:36.232Z,12.82
2022-11-28T23:58:39.723Z,13.57
